TimeCST,TemperatureF,Dew PointF,Humidity,Sea Level PressureIn,VisibilityMPH,Wind Direction,Wind SpeedMPH,Gust SpeedMPH,PrecipitationIn,Events,Conditions,WindDirDegrees,DateUTC
12:15 AM,21.2,12.2,68,30.46,10.0,NNW,4.6,-,N/A,,Clear,340,2012-11-16 06:15:00
12:35 AM,19.4,12.2,74,30.46,10.0,North,6.9,-,N/A,,Clear,350,2012-11-16 06:35:00
12:55 AM,19.4,12.2,74,30.46,10.0,NNW,5.8,-,N/A,,Clear,340,2012-11-16 06:55:00
1:15 AM,19.4,10.4,68,30.45,10.0,NNW,6.9,-,N/A,,Clear,340,2012-11-16 07:15:00
1:35 AM,19.4,12.2,74,30.45,10.0,North,5.8,-,N/A,,Clear,350,2012-11-16 07:35:00
1:55 AM,19.4,12.2,74,30.45,10.0,North,6.9,-,N/A,,Clear,10,2012-11-16 07:55:00
2:15 AM,19.4,12.2,74,30.45,10.0,North,5.8,-,N/A,,Clear,350,2012-11-16 08:15:00
2:35 AM,17.6,10.4,73,30.45,10.0,North,5.8,-,N/A,,Clear,10,2012-11-16 08:35:00
2:55 AM,19.4,12.2,74,30.44,10.0,North,4.6,-,N/A,,Clear,360,2012-11-16 08:55:00
3:15 AM,17.6,10.4,73,30.45,10.0,NNW,3.5,-,N/A,,Clear,340,2012-11-16 09:15:00
3:35 AM,17.6,10.4,73,30.44,10.0,Calm,Calm,-,N/A,,Clear,0,2012-11-16 09:35:00
3:55 AM,17.6,10.4,73,30.44,10.0,Calm,Calm,-,N/A,,Clear,0,2012-11-16 09:55:00
4:15 AM,19.4,12.2,74,30.43,10.0,North,4.6,-,N/A,,Clear,350,2012-11-16 10:15:00
4:35 AM,15.8,10.4,79,30.43,10.0,North,3.5,-,N/A,,Clear,350,2012-11-16 10:35:00
4:55 AM,15.8,10.4,79,30.43,10.0,NW,3.5,-,N/A,,Clear,320,2012-11-16 10:55:00
5:15 AM,15.8,8.6,73,30.42,10.0,Calm,Calm,-,N/A,,Clear,0,2012-11-16 11:15:00
5:35 AM,17.6,10.4,73,30.42,10.0,NNE,3.5,-,N/A,,Clear,20,2012-11-16 11:35:00
5:55 AM,15.8,10.4,79,30.41,10.0,Calm,Calm,-,N/A,,Clear,0,2012-11-16 11:55:00
6:15 AM,17.6,10.4,73,30.41,10.0,Calm,Calm,-,N/A,,Clear,0,2012-11-16 12:15:00
6:35 AM,15.8,8.6,73,30.41,10.0,Calm,Calm,-,N/A,,Clear,0,2012-11-16 12:35:00
6:55 AM,17.6,10.4,73,30.41,10.0,Calm,Calm,-,N/A,,Clear,0,2012-11-16 12:55:00
7:15 AM,15.8,8.6,73,30.42,10.0,Calm,Calm,-,N/A,,Clear,0,2012-11-16 13:15:00
7:35 AM,17.6,10.4,73,30.42,9.0,Calm,Calm,-,N/A,,Clear,0,2012-11-16 13:35:00
7:55 AM,17.6,12.2,79,30.42,8.0,Calm,Calm,-,N/A,,Clear,0,2012-11-16 13:55:00
8:15 AM,23.0,14.0,68,30.43,10.0,SSE,3.5,-,N/A,,Clear,150,2012-11-16 14:15:00
8:35 AM,24.8,14.0,64,30.43,10.0,SE,3.5,-,N/A,,Clear,140,2012-11-16 14:35:00
8:55 AM,26.6,15.8,64,30.43,10.0,SE,8.1,-,N/A,,Clear,130,2012-11-16 14:55:00
9:15 AM,28.4,15.8,59,30.44,10.0,SE,5.8,-,N/A,,Clear,140,2012-11-16 15:15:00
9:35 AM,30.2,15.8,55,30.44,10.0,SE,8.1,-,N/A,,Clear,140,2012-11-16 15:35:00
9:55 AM,32.0,17.6,55,30.44,10.0,SSE,6.9,-,N/A,,Clear,160,2012-11-16 15:55:00
10:15 AM,33.8,17.6,52,30.44,10.0,South,9.2,-,N/A,,Clear,170,2012-11-16 16:15:00
10:35 AM,35.6,17.6,48,30.43,10.0,SSE,8.1,-,N/A,,Clear,150,2012-11-16 16:35:00
10:55 AM,37.4,17.6,45,30.43,10.0,South,11.5,-,N/A,,Clear,180,2012-11-16 16:55:00
11:15 AM,39.2,17.6,42,30.42,10.0,South,11.5,-,N/A,,Clear,170,2012-11-16 17:15:00
11:35 AM,39.2,17.6,42,30.41,10.0,South,12.7,-,N/A,,Clear,190,2012-11-16 17:35:00
11:55 AM,41.0,17.6,39,30.41,10.0,South,11.5,-,N/A,,Clear,180,2012-11-16 17:55:00
12:15 PM,41.0,19.4,42,30.39,10.0,South,10.4,-,N/A,,Clear,180,2012-11-16 18:15:00
12:35 PM,42.8,17.6,36,30.39,10.0,South,10.4,-,N/A,,Clear,190,2012-11-16 18:35:00
12:55 PM,42.8,19.4,39,30.38,10.0,South,11.5,-,N/A,,Clear,180,2012-11-16 18:55:00
1:15 PM,44.6,17.6,34,30.37,10.0,South,12.7,-,N/A,,Clear,180,2012-11-16 19:15:00
1:35 PM,44.6,17.6,34,30.36,10.0,South,10.4,17.3,N/A,,Clear,180,2012-11-16 19:35:00
1:55 PM,46.4,17.6,32,30.35,10.0,South,11.5,-,N/A,,Clear,190,2012-11-16 19:55:00
2:15 PM,46.4,17.6,32,30.34,9.0,South,11.5,-,N/A,,Clear,180,2012-11-16 20:15:00
2:35 PM,46.4,19.4,34,30.32,10.0,SSE,12.7,-,N/A,,Clear,150,2012-11-16 20:35:00
2:55 PM,46.4,19.4,34,30.31,10.0,South,12.7,-,N/A,,Clear,170,2012-11-16 20:55:00
3:15 PM,46.4,21.2,37,30.31,10.0,SSE,13.8,-,N/A,,Clear,160,2012-11-16 21:15:00
3:35 PM,46.4,21.2,37,30.31,10.0,SSE,15.0,18.4,N/A,,Clear,160,2012-11-16 21:35:00
3:55 PM,46.4,21.2,37,30.31,10.0,SSE,11.5,-,N/A,,Clear,160,2012-11-16 21:55:00
4:15 PM,44.6,21.2,39,30.31,10.0,South,11.5,-,N/A,,Clear,170,2012-11-16 22:15:00
4:35 PM,44.6,23.0,43,30.30,10.0,SSE,11.5,-,N/A,,Clear,160,2012-11-16 22:35:00
4:55 PM,42.8,23.0,46,30.29,10.0,SSE,11.5,-,N/A,,Clear,160,2012-11-16 22:55:00
5:15 PM,42.8,23.0,46,30.28,10.0,SSE,11.5,-,N/A,,Clear,160,2012-11-16 23:15:00
5:35 PM,41.0,23.0,49,30.28,10.0,SSE,10.4,-,N/A,,Clear,160,2012-11-16 23:35:00
5:55 PM,39.2,23.0,52,30.27,10.0,SSE,11.5,-,N/A,,Clear,160,2012-11-16 23:55:00
6:15 PM,39.2,24.8,56,30.27,10.0,South,10.4,-,N/A,,Clear,170,2012-11-17 00:15:00
6:35 PM,39.2,24.8,56,30.27,10.0,SSE,10.4,-,N/A,,Clear,160,2012-11-17 00:35:00
6:55 PM,39.2,24.8,56,30.27,10.0,South,10.4,-,N/A,,Clear,170,2012-11-17 00:55:00
7:15 PM,39.2,24.8,56,30.26,10.0,SSE,11.5,-,N/A,,Clear,160,2012-11-17 01:15:00
7:35 PM,39.2,24.8,56,30.26,10.0,SSE,12.7,-,N/A,,Clear,160,2012-11-17 01:35:00
7:55 PM,39.2,24.8,56,30.25,10.0,SSE,11.5,-,N/A,,Clear,160,2012-11-17 01:55:00
8:15 PM,39.2,24.8,56,30.25,10.0,SSE,15.0,-,N/A,,Clear,160,2012-11-17 02:15:00
8:35 PM,39.2,24.8,56,30.25,10.0,South,12.7,-,N/A,,Clear,170,2012-11-17 02:35:00
8:55 PM,37.4,24.8,60,30.25,10.0,South,15.0,-,N/A,,Clear,170,2012-11-17 02:55:00
9:15 PM,37.4,24.8,60,30.25,10.0,South,15.0,-,N/A,,Clear,170,2012-11-17 03:15:00
9:55 PM,39.2,24.8,56,30.25,10.0,South,17.3,-,N/A,,Clear,170,2012-11-17 03:55:00
10:15 PM,39.2,24.8,56,30.25,10.0,South,17.3,-,N/A,,Clear,180,2012-11-17 04:15:00
10:35 PM,39.2,26.6,61,30.26,10.0,South,15.0,-,N/A,,Clear,180,2012-11-17 04:35:00
10:55 PM,39.2,26.6,61,30.26,10.0,South,17.3,-,N/A,,Clear,190,2012-11-17 04:55:00
11:15 PM,39.2,26.6,61,30.26,10.0,South,17.3,24.2,N/A,,Clear,180,2012-11-17 05:15:00
11:35 PM,37.4,24.8,60,30.26,10.0,South,18.4,-,N/A,,Clear,180,2012-11-17 05:35:00
11:55 PM,37.4,26.6,65,30.25,10.0,South,17.3,-,N/A,,Clear,180,2012-11-17 05:55:00